sensor_id;sensor_type;location;lat;lon;timestamp;pressure;altitude;pressure_sealevel;temperature;humidity
16190;BME280;41754;51.498;7.540;2023-04-08T00:01:29;100922.22;;;6.68;82.48
16190;BME280;41754;51.498;7.540;2023-04-08T00:03:57;100931.50;;;6.73;81.87
16190;BME280;41754;51.498;7.540;2023-04-08T00:06:26;100923.78;;;6.49;83.32
16190;BME280;41754;51.498;7.540;2023-04-08T00:08:54;100928.69;;;6.52;82.90
16190;BME280;41754;51.498;7.540;2023-04-08T00:11:22;100936.31;;;6.40;83.03
16190;BME280;41754;51.498;7.540;2023-04-08T00:13:50;100939.63;;;6.47;82.84
16190;BME280;41754;51.498;7.540;2023-04-08T00:16:17;100940.09;;;6.29;83.85
16190;BME280;41754;51.498;7.540;2023-04-08T00:18:46;100942.31;;;6.32;83.54
16190;BME280;41754;51.498;7.540;2023-04-08T00:21:15;100937.97;;;6.46;82.18
16190;BME280;41754;51.498;7.540;2023-04-08T00:23:47;100933.88;;;5.91;83.57
16190;BME280;41754;51.498;7.540;2023-04-08T00:26:15;100938.75;;;5.84;84.15
16190;BME280;41754;51.498;7.540;2023-04-08T00:28:43;100931.16;;;5.91;84.53
16190;BME280;41754;51.498;7.540;2023-04-08T00:31:11;100944.22;;;5.84;83.55
16190;BME280;41754;51.498;7.540;2023-04-08T00:33:39;100938.31;;;6.02;82.85
16190;BME280;41754;51.498;7.540;2023-04-08T00:36:07;100939.94;;;6.03;81.95
16190;BME280;41754;51.498;7.540;2023-04-08T00:38:34;100946.72;;;5.91;82.82
16190;BME280;41754;51.498;7.540;2023-04-08T00:41:04;100949.69;;;5.84;82.92
16190;BME280;41754;51.498;7.540;2023-04-08T00:43:32;100947.16;;;5.72;83.60
16190;BME280;41754;51.498;7.540;2023-04-08T00:45:59;100950.34;;;5.64;84.64
16190;BME280;41754;51.498;7.540;2023-04-08T00:48:28;100948.13;;;5.56;85.22
16190;BME280;41754;51.498;7.540;2023-04-08T00:50:56;100954.53;;;5.77;85.12
16190;BME280;41754;51.498;7.540;2023-04-08T00:53:24;100957.72;;;5.64;84.21
16190;BME280;41754;51.498;7.540;2023-04-08T00:55:54;100954.31;;;5.83;83.61
16190;BME280;41754;51.498;7.540;2023-04-08T00:58:23;100955.78;;;5.96;83.00
16190;BME280;41754;51.498;7.540;2023-04-08T01:00:56;100961.53;;;5.63;83.83
16190;BME280;41754;51.498;7.540;2023-04-08T01:03:33;100962.78;;;5.45;84.20
16190;BME280;41754;51.498;7.540;2023-04-08T01:06:09;100957.88;;;5.84;83.19
16190;BME280;41754;51.498;7.540;2023-04-08T01:08:41;100963.53;;;5.72;83.75
16190;BME280;41754;51.498;7.540;2023-04-08T01:11:11;100962.53;;;5.51;83.75
16190;BME280;41754;51.498;7.540;2023-04-08T01:13:43;100966.66;;;5.54;83.93
16190;BME280;41754;51.498;7.540;2023-04-08T01:16:13;100962.09;;;5.65;82.94
16190;BME280;41754;51.498;7.540;2023-04-08T01:18:43;100965.91;;;5.64;83.48
16190;BME280;41754;51.498;7.540;2023-04-08T01:21:14;100961.00;;;5.61;83.52
16190;BME280;41754;51.498;7.540;2023-04-08T01:23:53;100961.09;;;5.76;82.38
16190;BME280;41754;51.498;7.540;2023-04-08T01:26:26;100953.38;;;5.68;82.14
16190;BME280;41754;51.498;7.540;2023-04-08T01:28:58;100960.09;;;5.50;82.78
16190;BME280;41754;51.498;7.540;2023-04-08T01:31:27;100958.19;;;5.56;82.96
16190;BME280;41754;51.498;7.540;2023-04-08T01:33:58;100962.81;;;5.50;83.71
16190;BME280;41754;51.498;7.540;2023-04-08T01:36:29;100965.81;;;5.48;83.00
16190;BME280;41754;51.498;7.540;2023-04-08T01:38:59;100959.16;;;5.39;82.92
16190;BME280;41754;51.498;7.540;2023-04-08T01:41:30;100953.91;;;5.33;83.03
16190;BME280;41754;51.498;7.540;2023-04-08T01:44:01;100959.88;;;5.57;82.19
16190;BME280;41754;51.498;7.540;2023-04-08T01:46:30;100952.75;;;5.56;82.37
16190;BME280;41754;51.498;7.540;2023-04-08T01:48:59;100954.31;;;5.46;82.06
16190;BME280;41754;51.498;7.540;2023-04-08T01:51:28;100959.25;;;5.49;81.74
16190;BME280;41754;51.498;7.540;2023-04-08T01:53:58;100957.47;;;5.65;81.75
16190;BME280;41754;51.498;7.540;2023-04-08T01:56:28;100952.16;;;5.48;82.17
16190;BME280;41754;51.498;7.540;2023-04-08T01:58:59;100961.44;;;5.47;81.60
16190;BME280;41754;51.498;7.540;2023-04-08T02:01:28;100960.91;;;5.50;82.65
16190;BME280;41754;51.498;7.540;2023-04-08T02:03:58;100960.47;;;5.64;82.03
16190;BME280;41754;51.498;7.540;2023-04-08T02:06:27;100965.34;;;5.57;81.56
16190;BME280;41754;51.498;7.540;2023-04-08T02:08:55;100967.03;;;5.68;81.81
16190;BME280;41754;51.498;7.540;2023-04-08T02:11:23;100967.66;;;5.16;84.23
16190;BME280;41754;51.498;7.540;2023-04-08T02:13:51;100966.78;;;5.37;83.95
16190;BME280;41754;51.498;7.540;2023-04-08T02:16:23;100974.16;;;5.10;83.95
16190;BME280;41754;51.498;7.540;2023-04-08T02:18:59;100969.81;;;5.41;83.56
16190;BME280;41754;51.498;7.540;2023-04-08T02:21:35;100977.41;;;5.07;84.71
16190;BME280;41754;51.498;7.540;2023-04-08T02:24:07;100968.75;;;5.15;85.12
16190;BME280;41754;51.498;7.540;2023-04-08T02:26:36;100978.16;;;5.29;85.20
16190;BME280;41754;51.498;7.540;2023-04-08T02:29:08;100984.38;;;5.24;85.38
16190;BME280;41754;51.498;7.540;2023-04-08T02:31:41;100976.25;;;5.30;84.04
16190;BME280;41754;51.498;7.540;2023-04-08T02:34:12;100976.50;;;5.28;84.48
16190;BME280;41754;51.498;7.540;2023-04-08T02:36:41;100974.72;;;5.12;84.28
16190;BME280;41754;51.498;7.540;2023-04-08T02:39:12;100973.00;;;5.06;83.81
16190;BME280;41754;51.498;7.540;2023-04-08T02:41:40;100971.00;;;5.23;83.64
16190;BME280;41754;51.498;7.540;2023-04-08T02:44:08;100973.97;;;5.43;81.89
16190;BME280;41754;51.498;7.540;2023-04-08T02:46:40;100972.44;;;5.31;81.44
16190;BME280;41754;51.498;7.540;2023-04-08T02:49:08;100972.25;;;5.37;81.58
16190;BME280;41754;51.498;7.540;2023-04-08T02:51:36;100979.44;;;5.48;81.66
16190;BME280;41754;51.498;7.540;2023-04-08T02:54:04;100975.03;;;5.42;81.34
16190;BME280;41754;51.498;7.540;2023-04-08T02:56:32;100976.59;;;5.06;82.88
16190;BME280;41754;51.498;7.540;2023-04-08T02:58:59;100982.16;;;5.43;81.96
16190;BME280;41754;51.498;7.540;2023-04-08T03:01:29;100985.34;;;5.35;82.56
16190;BME280;41754;51.498;7.540;2023-04-08T03:03:59;100985.44;;;5.45;82.16
16190;BME280;41754;51.498;7.540;2023-04-08T03:06:26;100985.78;;;5.27;81.95
16190;BME280;41754;51.498;7.540;2023-04-08T03:08:54;100989.44;;;5.38;82.72
16190;BME280;41754;51.498;7.540;2023-04-08T03:11:22;100986.53;;;5.44;81.88
16190;BME280;41754;51.498;7.540;2023-04-08T03:13:50;100987.47;;;5.33;82.01
16190;BME280;41754;51.498;7.540;2023-04-08T03:16:18;100986.16;;;5.36;82.40
16190;BME280;41754;51.498;7.540;2023-04-08T03:18:46;100986.56;;;5.49;81.91
16190;BME280;41754;51.498;7.540;2023-04-08T03:21:15;100994.47;;;5.51;81.57
16190;BME280;41754;51.498;7.540;2023-04-08T03:23:43;100982.59;;;5.67;80.82
16190;BME280;41754;51.498;7.540;2023-04-08T03:26:11;100985.09;;;5.69;80.64
16190;BME280;41754;51.498;7.540;2023-04-08T03:28:39;100984.91;;;5.48;80.78
16190;BME280;41754;51.498;7.540;2023-04-08T03:31:07;100991.56;;;5.63;80.92
16190;BME280;41754;51.498;7.540;2023-04-08T03:33:34;100995.94;;;5.64;80.52
16190;BME280;41754;51.498;7.540;2023-04-08T03:36:02;100994.09;;;5.69;80.92
16190;BME280;41754;51.498;7.540;2023-04-08T03:38:32;101005.66;;;5.49;80.92
16190;BME280;41754;51.498;7.540;2023-04-08T03:41:00;101000.94;;;5.72;80.71
16190;BME280;41754;51.498;7.540;2023-04-08T03:43:28;100999.22;;;5.61;80.50
16190;BME280;41754;51.498;7.540;2023-04-08T03:45:56;101001.03;;;5.23;81.85
16190;BME280;41754;51.498;7.540;2023-04-08T03:48:24;101000.75;;;5.51;81.93
16190;BME280;41754;51.498;7.540;2023-04-08T03:50:52;101002.78;;;5.66;81.89
16190;BME280;41754;51.498;7.540;2023-04-08T03:53:20;100993.13;;;5.91;80.34
16190;BME280;41754;51.498;7.540;2023-04-08T03:55:49;100988.00;;;5.57;81.19
16190;BME280;41754;51.498;7.540;2023-04-08T03:58:17;100990.00;;;5.72;81.26
16190;BME280;41754;51.498;7.540;2023-04-08T04:00:45;100999.38;;;5.49;82.18
16190;BME280;41754;51.498;7.540;2023-04-08T04:03:13;100997.13;;;5.73;81.89
16190;BME280;41754;51.498;7.540;2023-04-08T04:05:41;100995.91;;;5.59;81.39
16190;BME280;41754;51.498;7.540;2023-04-08T04:08:08;100997.94;;;5.73;81.67
16190;BME280;41754;51.498;7.540;2023-04-08T04:10:36;100996.84;;;5.42;82.22
16190;BME280;41754;51.498;7.540;2023-04-08T04:13:05;101005.13;;;5.52;82.69
16190;BME280;41754;51.498;7.540;2023-04-08T04:15:37;101009.06;;;5.67;83.31
16190;BME280;41754;51.498;7.540;2023-04-08T04:18:05;101006.69;;;5.75;82.48
16190;BME280;41754;51.498;7.540;2023-04-08T04:20:33;100997.78;;;5.90;81.64
16190;BME280;41754;51.498;7.540;2023-04-08T04:23:01;100998.03;;;5.83;81.80
16190;BME280;41754;51.498;7.540;2023-04-08T04:25:29;101003.16;;;5.80;82.04
16190;BME280;41754;51.498;7.540;2023-04-08T04:27:57;101003.41;;;6.10;81.59
16190;BME280;41754;51.498;7.540;2023-04-08T04:30:26;101009.25;;;5.87;81.04
16190;BME280;41754;51.498;7.540;2023-04-08T04:32:54;101010.47;;;5.69;82.26
16190;BME280;41754;51.498;7.540;2023-04-08T04:35:23;101007.59;;;5.86;82.31
16190;BME280;41754;51.498;7.540;2023-04-08T04:37:51;101010.44;;;6.01;82.13
16190;BME280;41754;51.498;7.540;2023-04-08T04:40:19;101017.25;;;5.99;81.99
16190;BME280;41754;51.498;7.540;2023-04-08T04:42:47;101021.72;;;6.15;81.61
16190;BME280;41754;51.498;7.540;2023-04-08T04:45:15;101026.75;;;5.91;81.48
16190;BME280;41754;51.498;7.540;2023-04-08T04:47:44;101028.34;;;5.82;83.41
16190;BME280;41754;51.498;7.540;2023-04-08T04:50:12;101032.06;;;5.71;82.85
16190;BME280;41754;51.498;7.540;2023-04-08T04:52:40;101027.03;;;5.58;83.19
16190;BME280;41754;51.498;7.540;2023-04-08T04:55:08;101025.97;;;5.64;83.51
16190;BME280;41754;51.498;7.540;2023-04-08T04:57:36;101027.00;;;5.90;83.42
16190;BME280;41754;51.498;7.540;2023-04-08T05:00:05;101016.66;;;6.34;81.75
16190;BME280;41754;51.498;7.540;2023-04-08T05:02:35;101024.50;;;5.83;81.82
16190;BME280;41754;51.498;7.540;2023-04-08T05:05:05;101022.41;;;5.95;82.57
16190;BME280;41754;51.498;7.540;2023-04-08T05:07:34;101021.22;;;5.81;82.54
16190;BME280;41754;51.498;7.540;2023-04-08T05:10:03;101025.59;;;5.82;83.69
16190;BME280;41754;51.498;7.540;2023-04-08T05:12:31;101029.25;;;5.61;83.80
16190;BME280;41754;51.498;7.540;2023-04-08T05:14:59;101036.66;;;6.02;83.18
16190;BME280;41754;51.498;7.540;2023-04-08T05:17:27;101037.16;;;6.31;82.08
16190;BME280;41754;51.498;7.540;2023-04-08T05:19:55;101032.19;;;6.28;80.80
16190;BME280;41754;51.498;7.540;2023-04-08T05:22:24;101044.56;;;6.41;80.91
16190;BME280;41754;51.498;7.540;2023-04-08T05:24:52;101043.72;;;6.40;81.16
16190;BME280;41754;51.498;7.540;2023-04-08T05:27:20;101060.66;;;5.95;82.62
16190;BME280;41754;51.498;7.540;2023-04-08T05:29:48;101053.81;;;6.35;82.22
16190;BME280;41754;51.498;7.540;2023-04-08T05:32:16;101057.66;;;6.39;81.54
16190;BME280;41754;51.498;7.540;2023-04-08T05:34:43;101056.06;;;6.43;82.00
16190;BME280;41754;51.498;7.540;2023-04-08T05:37:11;101062.03;;;6.40;82.27
16190;BME280;41754;51.498;7.540;2023-04-08T05:39:41;101058.19;;;6.31;81.80
16190;BME280;41754;51.498;7.540;2023-04-08T05:42:08;101054.94;;;6.39;81.81
16190;BME280;41754;51.498;7.540;2023-04-08T05:44:38;101067.97;;;6.69;80.97
16190;BME280;41754;51.498;7.540;2023-04-08T05:47:06;101062.13;;;6.50;80.77
16190;BME280;41754;51.498;7.540;2023-04-08T05:49:34;101053.97;;;6.60;80.99
16190;BME280;41754;51.498;7.540;2023-04-08T05:52:02;101054.72;;;6.51;81.00
16190;BME280;41754;51.498;7.540;2023-04-08T05:54:30;101063.09;;;6.81;80.42
16190;BME280;41754;51.498;7.540;2023-04-08T05:56:59;101073.09;;;6.60;80.70
16190;BME280;41754;51.498;7.540;2023-04-08T05:59:27;101075.03;;;6.60;82.17
16190;BME280;41754;51.498;7.540;2023-04-08T06:01:55;101087.41;;;6.73;81.53
16190;BME280;41754;51.498;7.540;2023-04-08T06:04:23;101081.31;;;6.65;81.33
16190;BME280;41754;51.498;7.540;2023-04-08T06:06:51;101088.69;;;7.17;80.04
16190;BME280;41754;51.498;7.540;2023-04-08T06:09:19;101084.16;;;6.86;80.80
16190;BME280;41754;51.498;7.540;2023-04-08T06:11:47;101094.63;;;6.94;81.71
16190;BME280;41754;51.498;7.540;2023-04-08T06:14:17;101095.66;;;6.83;80.74
16190;BME280;41754;51.498;7.540;2023-04-08T06:16:46;101084.59;;;6.57;81.43
16190;BME280;41754;51.498;7.540;2023-04-08T06:19:13;101091.16;;;6.61;82.43
16190;BME280;41754;51.498;7.540;2023-04-08T06:21:42;101098.66;;;6.39;82.48
16190;BME280;41754;51.498;7.540;2023-04-08T06:24:09;101110.78;;;6.53;81.64
16190;BME280;41754;51.498;7.540;2023-04-08T06:26:37;101107.50;;;6.51;82.08
16190;BME280;41754;51.498;7.540;2023-04-08T06:29:05;101118.66;;;6.92;81.08
16190;BME280;41754;51.498;7.540;2023-04-08T06:31:34;101115.19;;;7.07;80.74
16190;BME280;41754;51.498;7.540;2023-04-08T06:34:02;101116.31;;;6.63;80.54
16190;BME280;41754;51.498;7.540;2023-04-08T06:36:30;101124.66;;;6.89;79.53
16190;BME280;41754;51.498;7.540;2023-04-08T06:38:58;101126.50;;;6.73;80.80
16190;BME280;41754;51.498;7.540;2023-04-08T06:41:26;101117.00;;;6.86;80.01
16190;BME280;41754;51.498;7.540;2023-04-08T06:44:01;101130.25;;;6.62;81.43
16190;BME280;41754;51.498;7.540;2023-04-08T06:46:28;101136.03;;;6.65;81.41
16190;BME280;41754;51.498;7.540;2023-04-08T06:48:58;101123.03;;;6.88;80.71
16190;BME280;41754;51.498;7.540;2023-04-08T06:51:25;101118.72;;;7.02;79.60
16190;BME280;41754;51.498;7.540;2023-04-08T06:53:53;101125.50;;;6.89;79.31
16190;BME280;41754;51.498;7.540;2023-04-08T06:56:22;101115.31;;;7.32;77.91
16190;BME280;41754;51.498;7.540;2023-04-08T06:58:51;101111.84;;;7.77;75.85
16190;BME280;41754;51.498;7.540;2023-04-08T07:01:19;101121.91;;;7.46;75.41
16190;BME280;41754;51.498;7.540;2023-04-08T07:03:47;101125.28;;;7.84;75.34
16190;BME280;41754;51.498;7.540;2023-04-08T07:06:16;101122.22;;;7.55;75.21
16190;BME280;41754;51.498;7.540;2023-04-08T07:08:44;101130.22;;;7.92;73.49
16190;BME280;41754;51.498;7.540;2023-04-08T07:11:12;101129.97;;;8.04;72.44
16190;BME280;41754;51.498;7.540;2023-04-08T07:13:41;101133.78;;;8.03;71.77
16190;BME280;41754;51.498;7.540;2023-04-08T07:16:09;101137.88;;;8.26;71.36
16190;BME280;41754;51.498;7.540;2023-04-08T07:18:37;101154.59;;;8.39;71.32
16190;BME280;41754;51.498;7.540;2023-04-08T07:21:07;101149.13;;;8.60;69.74
16190;BME280;41754;51.498;7.540;2023-04-08T07:23:36;101143.13;;;8.42;68.42
16190;BME280;41754;51.498;7.540;2023-04-08T07:26:04;101142.84;;;8.44;68.01
16190;BME280;41754;51.498;7.540;2023-04-08T07:28:31;101142.03;;;8.18;69.82
16190;BME280;41754;51.498;7.540;2023-04-08T07:31:08;101146.34;;;8.75;69.18
16190;BME280;41754;51.498;7.540;2023-04-08T07:33:37;101143.56;;;8.95;68.29
16190;BME280;41754;51.498;7.540;2023-04-08T07:36:05;101143.94;;;8.43;67.81
16190;BME280;41754;51.498;7.540;2023-04-08T07:38:33;101139.28;;;8.08;68.22
16190;BME280;41754;51.498;7.540;2023-04-08T07:41:02;101145.28;;;8.51;67.78
16190;BME280;41754;51.498;7.540;2023-04-08T07:43:30;101142.22;;;8.88;66.46
16190;BME280;41754;51.498;7.540;2023-04-08T07:46:00;101151.84;;;8.65;67.17
16190;BME280;41754;51.498;7.540;2023-04-08T07:48:30;101159.56;;;8.42;66.70
16190;BME280;41754;51.498;7.540;2023-04-08T07:51:02;101162.84;;;8.55;65.75
16190;BME280;41754;51.498;7.540;2023-04-08T07:53:36;101167.25;;;8.45;66.29
16190;BME280;41754;51.498;7.540;2023-04-08T07:56:13;101160.09;;;8.50;66.49
16190;BME280;41754;51.498;7.540;2023-04-08T07:58:41;101173.53;;;8.46;67.49
16190;BME280;41754;51.498;7.540;2023-04-08T08:01:16;101173.78;;;8.65;66.12
16190;BME280;41754;51.498;7.540;2023-04-08T08:03:46;101176.50;;;9.00;64.11
16190;BME280;41754;51.498;7.540;2023-04-08T08:06:15;101173.53;;;8.61;65.15
16190;BME280;41754;51.498;7.540;2023-04-08T08:08:43;101172.97;;;8.59;65.19
16190;BME280;41754;51.498;7.540;2023-04-08T08:11:12;101169.41;;;8.64;65.14
16190;BME280;41754;51.498;7.540;2023-04-08T08:13:40;101170.50;;;8.63;65.18
16190;BME280;41754;51.498;7.540;2023-04-08T08:16:08;101171.63;;;8.46;65.25
16190;BME280;41754;51.498;7.540;2023-04-08T08:18:38;101172.69;;;8.61;63.53
16190;BME280;41754;51.498;7.540;2023-04-08T08:21:06;101173.75;;;9.00;63.02
16190;BME280;41754;51.498;7.540;2023-04-08T08:23:34;101175.91;;;9.14;62.87
16190;BME280;41754;51.498;7.540;2023-04-08T08:26:05;101186.34;;;9.12;62.27
16190;BME280;41754;51.498;7.540;2023-04-08T08:28:36;101187.47;;;9.05;61.81
16190;BME280;41754;51.498;7.540;2023-04-08T08:31:05;101184.69;;;9.16;62.35
16190;BME280;41754;51.498;7.540;2023-04-08T08:33:33;101197.31;;;9.17;63.99
16190;BME280;41754;51.498;7.540;2023-04-08T08:36:01;101198.03;;;9.48;62.77
16190;BME280;41754;51.498;7.540;2023-04-08T08:38:30;101202.31;;;10.18;62.24
16190;BME280;41754;51.498;7.540;2023-04-08T08:40:59;101210.25;;;9.76;61.97
16190;BME280;41754;51.498;7.540;2023-04-08T08:43:29;101205.22;;;9.93;61.39
16190;BME280;41754;51.498;7.540;2023-04-08T08:46:00;101203.59;;;9.87;61.30
16190;BME280;41754;51.498;7.540;2023-04-08T08:48:30;101213.44;;;9.44;62.39
16190;BME280;41754;51.498;7.540;2023-04-08T08:50:58;101213.25;;;9.10;62.77
16190;BME280;41754;51.498;7.540;2023-04-08T08:53:29;101222.00;;;9.22;61.96
16190;BME280;41754;51.498;7.540;2023-04-08T08:56:01;101210.44;;;9.35;60.78
16190;BME280;41754;51.498;7.540;2023-04-08T08:58:32;101203.13;;;9.00;60.97
16190;BME280;41754;51.498;7.540;2023-04-08T09:01:01;101209.94;;;9.28;60.84
16190;BME280;41754;51.498;7.540;2023-04-08T09:03:29;101215.47;;;8.77;61.39
16190;BME280;41754;51.498;7.540;2023-04-08T09:05:58;101225.00;;;9.35;60.40
16190;BME280;41754;51.498;7.540;2023-04-08T09:08:28;101221.53;;;8.94;61.21
16190;BME280;41754;51.498;7.540;2023-04-08T09:11:11;101223.16;;;9.16;60.01
16190;BME280;41754;51.498;7.540;2023-04-08T09:13:39;101218.16;;;9.28;59.95
16190;BME280;41754;51.498;7.540;2023-04-08T09:16:09;101214.75;;;9.51;59.53
16190;BME280;41754;51.498;7.540;2023-04-08T09:18:39;101214.50;;;9.48;59.27
16190;BME280;41754;51.498;7.540;2023-04-08T09:21:10;101214.38;;;9.03;60.30
16190;BME280;41754;51.498;7.540;2023-04-08T09:23:40;101208.88;;;9.73;57.51
16190;BME280;41754;51.498;7.540;2023-04-08T09:26:10;101213.16;;;9.94;57.66
16190;BME280;41754;51.498;7.540;2023-04-08T09:28:39;101206.13;;;9.73;57.84
16190;BME280;41754;51.498;7.540;2023-04-08T09:31:22;101216.31;;;9.78;58.22
16190;BME280;41754;51.498;7.540;2023-04-08T09:33:53;101216.78;;;9.90;57.83
16190;BME280;41754;51.498;7.540;2023-04-08T09:36:21;101225.56;;;9.92;56.06
16190;BME280;41754;51.498;7.540;2023-04-08T09:38:49;101223.59;;;9.98;55.91
16190;BME280;41754;51.498;7.540;2023-04-08T09:41:18;101220.50;;;10.09;56.25
16190;BME280;41754;51.498;7.540;2023-04-08T09:43:50;101225.22;;;9.99;57.12
16190;BME280;41754;51.498;7.540;2023-04-08T09:46:32;101223.34;;;9.89;56.28
16190;BME280;41754;51.498;7.540;2023-04-08T09:49:05;101226.09;;;9.89;55.85
16190;BME280;41754;51.498;7.540;2023-04-08T09:51:39;101235.47;;;9.88;56.41
16190;BME280;41754;51.498;7.540;2023-04-08T09:54:12;101242.06;;;9.87;58.04
16190;BME280;41754;51.498;7.540;2023-04-08T09:56:43;101234.34;;;9.94;56.72
16190;BME280;41754;51.498;7.540;2023-04-08T09:59:16;101245.78;;;10.11;56.62
16190;BME280;41754;51.498;7.540;2023-04-08T10:01:53;101232.41;;;10.39;55.67
16190;BME280;41754;51.498;7.540;2023-04-08T10:04:22;101235.28;;;10.23;55.48
16190;BME280;41754;51.498;7.540;2023-04-08T10:06:53;101236.50;;;10.80;55.52
16190;BME280;41754;51.498;7.540;2023-04-08T10:09:24;101232.84;;;10.56;56.05
16190;BME280;41754;51.498;7.540;2023-04-08T10:11:54;101233.22;;;10.78;55.61
16190;BME280;41754;51.498;7.540;2023-04-08T10:14:22;101229.69;;;11.02;55.07
16190;BME280;41754;51.498;7.540;2023-04-08T10:17:24;101237.34;;;11.05;54.60
16190;BME280;41754;51.498;7.540;2023-04-08T10:19:53;101233.78;;;9.97;55.93
16190;BME280;41754;51.498;7.540;2023-04-08T10:22:45;101255.97;;;9.56;58.44
16190;BME280;41754;51.498;7.540;2023-04-08T10:25:31;101248.38;;;10.42;55.98
16190;BME280;41754;51.498;7.540;2023-04-08T10:27:59;101240.56;;;10.10;57.10
16190;BME280;41754;51.498;7.540;2023-04-08T10:30:38;101243.25;;;10.64;55.70
16190;BME280;41754;51.498;7.540;2023-04-08T10:33:10;101239.56;;;11.03;54.59
16190;BME280;41754;51.498;7.540;2023-04-08T10:35:41;101242.28;;;11.08;55.66
16190;BME280;41754;51.498;7.540;2023-04-08T10:38:09;101235.28;;;11.45;55.46
16190;BME280;41754;51.498;7.540;2023-04-08T10:40:39;101242.09;;;11.52;54.66
16190;BME280;41754;51.498;7.540;2023-04-08T10:43:08;101233.06;;;10.94;54.69
16190;BME280;41754;51.498;7.540;2023-04-08T10:45:36;101228.28;;;11.76;54.29
16190;BME280;41754;51.498;7.540;2023-04-08T10:48:14;101218.91;;;11.77;53.00
16190;BME280;41754;51.498;7.540;2023-04-08T10:50:44;101221.38;;;13.41;51.76
16190;BME280;41754;51.498;7.540;2023-04-08T10:53:23;101209.59;;;14.49;46.72
16190;BME280;41754;51.498;7.540;2023-04-08T10:55:52;101216.09;;;12.85;49.42
16190;BME280;41754;51.498;7.540;2023-04-08T10:58:20;101227.19;;;12.15;51.47
16190;BME280;41754;51.498;7.540;2023-04-08T11:00:48;101218.91;;;11.96;52.50
16190;BME280;41754;51.498;7.540;2023-04-08T11:03:18;101222.31;;;11.88;53.29
16190;BME280;41754;51.498;7.540;2023-04-08T11:05:48;101223.81;;;11.32;53.68
16190;BME280;41754;51.498;7.540;2023-04-08T11:08:16;101223.66;;;12.09;53.49
16190;BME280;41754;51.498;7.540;2023-04-08T11:10:47;101221.34;;;11.97;52.77
16190;BME280;41754;51.498;7.540;2023-04-08T11:13:15;101222.34;;;12.25;53.46
16190;BME280;41754;51.498;7.540;2023-04-08T11:15:43;101220.91;;;12.28;52.77
16190;BME280;41754;51.498;7.540;2023-04-08T11:18:11;101215.25;;;12.38;52.09
16190;BME280;41754;51.498;7.540;2023-04-08T11:20:42;101220.56;;;13.13;50.37
16190;BME280;41754;51.498;7.540;2023-04-08T11:23:12;101217.03;;;12.29;51.24
16190;BME280;41754;51.498;7.540;2023-04-08T11:25:40;101223.75;;;12.74;52.18
16190;BME280;41754;51.498;7.540;2023-04-08T11:28:09;101225.00;;;12.82;52.25
16190;BME280;41754;51.498;7.540;2023-04-08T11:30:38;101223.97;;;12.26;52.83
16190;BME280;41754;51.498;7.540;2023-04-08T11:33:06;101227.19;;;12.15;52.33
16190;BME280;41754;51.498;7.540;2023-04-08T11:35:38;101222.59;;;12.24;52.94
16190;BME280;41754;51.498;7.540;2023-04-08T11:38:08;101221.69;;;12.47;52.50
16190;BME280;41754;51.498;7.540;2023-04-08T11:40:37;101211.47;;;12.67;52.75
16190;BME280;41754;51.498;7.540;2023-04-08T11:43:08;101213.25;;;12.76;52.22
16190;BME280;41754;51.498;7.540;2023-04-08T11:45:37;101221.41;;;13.28;51.08
16190;BME280;41754;51.498;7.540;2023-04-08T11:48:09;101224.16;;;12.68;51.57
16190;BME280;41754;51.498;7.540;2023-04-08T11:50:38;101227.16;;;12.52;51.95
16190;BME280;41754;51.498;7.540;2023-04-08T11:53:16;101215.75;;;12.73;51.97
16190;BME280;41754;51.498;7.540;2023-04-08T11:55:45;101219.00;;;12.61;52.08
16190;BME280;41754;51.498;7.540;2023-04-08T11:58:14;101220.84;;;13.12;51.79
16190;BME280;41754;51.498;7.540;2023-04-08T12:00:42;101220.91;;;12.79;51.30
16190;BME280;41754;51.498;7.540;2023-04-08T12:03:11;101225.22;;;12.99;51.76
16190;BME280;41754;51.498;7.540;2023-04-08T12:05:39;101234.38;;;12.48;51.86
16190;BME280;41754;51.498;7.540;2023-04-08T12:08:08;101233.81;;;11.76;54.41
16190;BME280;41754;51.498;7.540;2023-04-08T12:10:37;101234.03;;;11.98;54.60
16190;BME280;41754;51.498;7.540;2023-04-08T12:13:05;101224.34;;;12.39;54.16
16190;BME280;41754;51.498;7.540;2023-04-08T12:15:32;101224.03;;;12.40;53.03
16190;BME280;41754;51.498;7.540;2023-04-08T12:18:00;101222.38;;;13.04;52.00
16190;BME280;41754;51.498;7.540;2023-04-08T12:20:28;101231.50;;;13.46;50.56
16190;BME280;41754;51.498;7.540;2023-04-08T12:22:56;101233.47;;;13.73;49.72
16190;BME280;41754;51.498;7.540;2023-04-08T12:25:24;101235.41;;;13.45;50.94
16190;BME280;41754;51.498;7.540;2023-04-08T12:27:54;101235.91;;;13.33;50.20
16190;BME280;41754;51.498;7.540;2023-04-08T12:30:22;101229.31;;;13.98;50.06
16190;BME280;41754;51.498;7.540;2023-04-08T12:32:50;101223.22;;;14.46;49.02
16190;BME280;41754;51.498;7.540;2023-04-08T12:35:19;101225.31;;;15.16;47.38
16190;BME280;41754;51.498;7.540;2023-04-08T12:37:47;101228.53;;;14.78;48.25
16190;BME280;41754;51.498;7.540;2023-04-08T12:40:15;101228.53;;;14.78;47.29
16190;BME280;41754;51.498;7.540;2023-04-08T12:42:44;101228.66;;;14.73;46.78
16190;BME280;41754;51.498;7.540;2023-04-08T12:45:13;101217.44;;;14.78;46.39
16190;BME280;41754;51.498;7.540;2023-04-08T12:47:41;101224.13;;;14.77;47.45
16190;BME280;41754;51.498;7.540;2023-04-08T12:50:09;101216.69;;;14.64;47.82
16190;BME280;41754;51.498;7.540;2023-04-08T12:52:37;101219.41;;;15.09;46.98
16190;BME280;41754;51.498;7.540;2023-04-08T12:55:06;101216.78;;;15.04;47.45
16190;BME280;41754;51.498;7.540;2023-04-08T12:57:34;101212.78;;;14.43;47.76
16190;BME280;41754;51.498;7.540;2023-04-08T13:00:02;101211.88;;;14.33;47.69
16190;BME280;41754;51.498;7.540;2023-04-08T13:02:32;101214.34;;;13.99;47.50
16190;BME280;41754;51.498;7.540;2023-04-08T13:05:00;101213.53;;;14.12;48.05
16190;BME280;41754;51.498;7.540;2023-04-08T13:07:27;101218.88;;;13.95;48.66
16190;BME280;41754;51.498;7.540;2023-04-08T13:09:55;101220.34;;;13.65;49.68